Time;durP1;ratioP1;P1;durP2;ratioP2;P2;SDS_P1;SDS_P2;PMS_P1;PMS_P2;Temp;Humidity;BMP_temperature;BMP_pressure;BME280_temperature;BME280_humidity;BME280_pressure;Samples;Min_cycle;Max_cycle;Signal;HPM_P1;HPM_P2
2022/05/10 00:02:01;;;;;;;12.55;10.32;;;12.30;97.40;;;;;;5038600;28;20029;-69
2022/05/10 00:04:30;;;;;;;12.73;10.57;;;12.30;97.30;;;;;;5053007;28;20108;-68
2022/05/10 00:06:57;;;;;;;13.38;11.43;;;12.30;97.30;;;;;;5058150;28;20049;-68
2022/05/10 00:09:27;;;;;;;13.20;10.63;;;12.20;97.30;;;;;;5051156;28;20260;-68
2022/05/10 00:11:54;;;;;;;14.80;12.18;;;12.10;97.40;;;;;;5054106;28;20037;-69
2022/05/10 00:14:21;;;;;;;12.68;11.32;;;11.90;97.30;;;;;;5051491;28;20445;-69
2022/05/10 00:16:51;;;;;;;13.63;11.40;;;11.80;97.40;;;;;;5037306;28;20036;-69
2022/05/10 00:19:18;;;;;;;13.20;11.50;;;11.70;97.30;;;;;;5056040;28;20105;-68
2022/05/10 00:21:44;;;;;;;14.18;11.35;;;11.60;97.40;;;;;;5037600;28;20029;-69
2022/05/10 00:24:10;;;;;;;15.23;12.15;;;11.50;97.20;;;;;;5052363;28;20035;-68
2022/05/10 00:26:38;;;;;;;15.98;12.27;;;11.40;97.20;;;;;;5061333;28;20470;-68
2022/05/10 00:29:03;;;;;;;15.02;12.88;;;11.30;97.00;;;;;;5054565;28;20096;-69
2022/05/10 00:31:30;;;;;;;14.57;12.57;;;11.20;96.80;;;;;;5057274;28;20359;-69
2022/05/10 00:33:58;;;;;;;18.88;14.27;;;11.10;96.80;;;;;;5054504;28;20033;-69
2022/05/10 00:36:24;;;;;;;15.95;13.07;;;11.00;96.90;;;;;;5055815;28;20047;-69
2022/05/10 00:38:51;;;;;;;15.57;12.93;;;10.90;96.60;;;;;;5055905;28;20040;-69
2022/05/10 00:41:34;;;;;;;13.82;12.43;;;10.90;96.30;;;;;;5057932;28;20025;-69
2022/05/10 00:44:17;;;;;;;17.00;15.13;;;10.90;96.50;;;;;;5061286;28;20029;-69
2022/05/10 00:46:46;;;;;;;17.42;14.10;;;10.80;96.20;;;;;;5054804;28;20025;-69
2022/05/10 00:49:29;;;;;;;17.33;14.93;;;10.70;95.90;;;;;;5061433;28;20024;-69
2022/05/10 00:52:20;;;;;;;17.75;13.80;;;10.70;95.90;;;;;;5053913;28;20033;-69
2022/05/10 00:54:58;;;;;;;18.02;15.10;;;10.60;95.90;;;;;;5052390;28;20096;-69
2022/05/10 00:57:41;;;;;;;18.10;15.10;;;10.50;95.80;;;;;;5059465;28;20116;-69
2022/05/10 01:00:18;;;;;;;19.63;17.15;;;10.40;95.50;;;;;;5054259;28;20072;-69
2022/05/10 01:02:47;;;;;;;20.00;16.48;;;10.30;94.90;;;;;;5050469;28;20050;-69
2022/05/10 01:05:40;;;;;;;18.90;16.08;;;10.30;94.50;;;;;;5053715;28;20077;-69
2022/05/10 01:08:16;;;;;;;20.90;16.80;;;10.30;94.70;;;;;;5062573;28;20087;-69
2022/05/10 01:10:52;;;;;;;20.77;18.10;;;10.40;94.00;;;;;;5053039;28;20102;-69
2022/05/10 01:13:31;;;;;;;20.17;17.20;;;10.50;94.10;;;;;;5054122;28;20044;-69
2022/05/10 01:16:09;;;;;;;44.55;17.08;;;10.70;94.60;;;;;;5047308;28;20036;-69
2022/05/10 01:18:35;;;;;;;21.33;16.35;;;10.80;95.40;;;;;;5053144;28;20033;-69
2022/05/10 01:21:19;;;;;;;19.60;16.98;;;10.80;95.70;;;;;;5054225;28;20304;-69
2022/05/10 01:24:02;;;;;;;19.80;16.92;;;10.70;95.60;;;;;;5053802;28;20028;-69
2022/05/10 01:26:56;;;;;;;18.98;16.85;;;10.80;95.30;;;;;;5053332;28;20033;-69
2022/05/10 01:29:32;;;;;;;19.75;17.02;;;10.90;95.50;;;;;;5041237;28;20047;-69
2022/05/10 01:34:55;;;;;;;19.33;17.23;;;11.00;96.20;;;;;;5024052;28;20029;-69
2022/05/10 01:37:24;;;;;;;17.33;15.35;;;11.10;96.20;;;;;;5060658;28;20020;-69
2022/05/10 01:39:59;;;;;;;18.23;16.20;;;11.00;96.50;;;;;;5053893;28;20417;-69
2022/05/10 01:42:37;;;;;;;21.48;17.08;;;10.90;96.90;;;;;;5057260;28;20021;-69
2022/05/10 01:45:15;;;;;;;21.52;16.92;;;10.80;96.80;;;;;;5054236;28;20067;-69
2022/05/10 01:47:50;;;;;;;19.10;16.05;;;10.60;96.30;;;;;;5050440;28;20116;-68
2022/05/10 01:50:40;;;;;;;20.23;17.25;;;10.40;96.00;;;;;;5067492;28;20082;-69
2022/05/10 01:53:11;;;;;;;22.52;18.50;;;10.30;95.60;;;;;;5054285;28;20056;-68
2022/05/10 01:55:47;;;;;;;20.45;18.25;;;10.30;95.10;;;;;;5062000;28;20077;-68
2022/05/10 01:58:16;;;;;;;21.38;18.60;;;10.20;94.60;;;;;;5057881;28;20035;-68
2022/05/10 02:00:49;;;;;;;20.77;17.38;;;10.20;94.50;;;;;;5062356;28;20056;-68
2022/05/10 02:03:34;;;;;;;19.98;17.55;;;10.20;94.50;;;;;;5053105;28;20025;-68
2022/05/10 02:06:08;;;;;;;18.80;16.02;;;10.10;94.80;;;;;;5053017;28;20021;-69
2022/05/10 02:08:45;;;;;;;22.45;17.42;;;9.90;94.60;;;;;;5052101;28;20025;-69
2022/05/10 02:11:15;;;;;;;20.60;17.58;;;9.70;94.60;;;;;;5057254;28;20025;-69
2022/05/10 02:14:06;;;;;;;20.65;18.45;;;9.60;94.40;;;;;;5053628;28;20044;-69
2022/05/10 02:16:55;;;;;;;22.00;18.73;;;9.60;93.80;;;;;;5053704;28;20053;-69
2022/05/10 02:19:36;;;;;;;24.15;18.98;;;9.60;92.30;;;;;;5055054;28;20025;-69
2022/05/10 02:22:12;;;;;;;22.10;19.25;;;10.10;91.40;;;;;;5054608;28;20296;-69
2022/05/10 02:24:43;;;;;;;20.30;18.10;;;10.40;92.10;;;;;;5040944;28;20368;-69
2022/05/10 02:27:18;;;;;;;19.85;16.67;;;10.80;93.60;;;;;;5054801;28;20025;-69
2022/05/10 02:29:45;;;;;;;19.90;16.88;;;11.10;95.50;;;;;;5052707;28;20094;-69
2022/05/10 02:35:07;;;;;;;22.58;16.75;;;11.60;97.70;;;;;;5055338;28;20043;-69
2022/05/10 02:37:32;;;;;;;18.30;14.93;;;11.70;97.90;;;;;;5060006;28;20033;-69
2022/05/10 02:39:59;;;;;;;21.70;15.18;;;11.60;97.70;;;;;;5052664;28;20119;-69
2022/05/10 02:42:26;;;;;;;18.95;15.60;;;11.60;97.70;;;;;;5054255;28;20028;-69
2022/05/10 02:44:54;;;;;;;17.60;15.13;;;11.50;97.80;;;;;;5052139;28;20021;-68
2022/05/10 02:47:34;;;;;;;17.17;14.13;;;11.20;97.50;;;;;;5035543;28;20021;-69
2022/05/10 02:50:03;;;;;;;18.77;16.50;;;11.00;97.10;;;;;;5046629;28;20025;-69
2022/05/10 02:52:28;;;;;;;19.55;17.35;;;10.80;96.80;;;;;;5056213;28;20165;-69
2022/05/10 02:55:00;;;;;;;19.08;16.52;;;10.70;96.90;;;;;;5053496;28;20122;-69
2022/05/10 02:57:27;;;;;;;17.95;15.02;;;10.50;96.30;;;;;;5063888;28;20474;-69
2022/05/10 02:59:57;;;;;;;18.95;15.45;;;10.40;95.90;;;;;;5052703;28;20045;-69
2022/05/10 03:02:31;;;;;;;20.70;16.67;;;10.20;95.50;;;;;;5053861;28;20067;-69
2022/05/10 03:04:58;;;;;;;20.65;17.77;;;10.20;95.40;;;;;;5061126;28;20029;-69
2022/05/10 03:07:25;;;;;;;24.73;17.52;;;10.10;95.00;;;;;;5054324;28;20094;-68
2022/05/10 03:09:51;;;;;;;22.20;18.65;;;10.00;95.00;;;;;;5052219;28;20029;-69
2022/05/10 03:12:17;;;;;;;23.40;17.95;;;9.90;94.50;;;;;;5054019;28;20112;-69
2022/05/10 03:14:43;;;;;;;21.45;18.05;;;9.90;94.00;;;;;;5052277;28;20048;-69
2022/05/10 03:17:10;;;;;;;21.50;18.45;;;9.90;93.10;;;;;;5053562;28;20025;-68
2022/05/10 03:19:37;;;;;;;24.25;18.55;;;9.90;93.10;;;;;;5052056;28;20059;-68
2022/05/10 03:22:03;;;;;;;20.50;17.27;;;9.90;92.90;;;;;;5053546;28;20037;-69
2022/05/10 03:24:29;;;;;;;24.17;20.42;;;9.80;92.40;;;;;;5053831;28;20021;-69
2022/05/10 03:26:54;;;;;;;22.77;18.98;;;9.80;92.70;;;;;;5053344;28;20075;-69
2022/05/10 03:29:21;;;;;;;26.40;19.58;;;9.80;92.60;;;;;;5057276;28;20029;-68
2022/05/10 03:31:47;;;;;;;23.95;18.90;;;9.80;92.50;;;;;;5056121;28;20410;-69
2022/05/10 03:36:59;;;;;;;22.98;18.27;;;9.90;91.90;;;;;;5056731;28;20040;-69
2022/05/10 03:39:25;;;;;;;19.90;17.60;;;9.90;91.80;;;;;;5039543;28;20020;-69
2022/05/10 03:41:51;;;;;;;22.05;18.73;;;10.00;92.20;;;;;;5063007;28;20086;-69
2022/05/10 03:44:18;;;;;;;22.95;18.90;;;10.00;92.30;;;;;;5056467;28;20353;-69
2022/05/10 03:46:44;;;;;;;23.65;17.50;;;9.90;92.50;;;;;;5049531;28;20025;-68
2022/05/10 03:49:13;;;;;;;22.30;17.42;;;9.90;92.10;;;;;;5039981;28;20100;-69
2022/05/10 03:51:39;;;;;;;22.02;18.42;;;10.00;91.90;;;;;;5056422;28;20372;-69
2022/05/10 03:54:05;;;;;;;21.88;18.13;;;10.00;92.00;;;;;;5057230;28;20025;-69
2022/05/10 03:56:31;;;;;;;20.17;16.95;;;10.00;92.10;;;;;;5054706;28;20402;-69
2022/05/10 03:58:57;;;;;;;21.45;17.30;;;10.00;92.40;;;;;;5058432;28;21368;-69
2022/05/10 04:01:23;;;;;;;20.52;17.58;;;10.00;92.40;;;;;;5053150;28;20492;-69
2022/05/10 04:03:49;;;;;;;19.45;17.05;;;10.10;92.50;;;;;;5054978;28;20029;-69
2022/05/10 04:06:15;;;;;;;21.65;17.95;;;10.10;92.70;;;;;;5057913;28;20431;-67
2022/05/10 04:08:41;;;;;;;23.05;19.92;;;10.10;92.60;;;;;;5056906;28;20032;-68
2022/05/10 04:11:09;;;;;;;20.85;17.45;;;10.10;92.60;;;;;;5039433;28;20120;-68
2022/05/10 04:13:35;;;;;;;19.95;17.38;;;10.20;92.80;;;;;;5059874;28;20029;-69
2022/05/10 04:16:01;;;;;;;21.75;17.25;;;10.20;92.90;;;;;;5057958;28;20028;-69
2022/05/10 04:18:27;;;;;;;23.17;17.55;;;10.30;93.10;;;;;;5046876;28;20358;-68
2022/05/10 04:20:54;;;;;;;22.13;16.45;;;10.20;92.90;;;;;;5041162;28;20032;-69
2022/05/10 04:23:20;;;;;;;19.92;15.75;;;10.40;93.20;;;;;;5066431;28;20029;-67
2022/05/10 04:25:45;;;;;;;19.75;16.00;;;10.40;93.50;;;;;;5061417;28;20025;-69
2022/05/10 04:28:11;;;;;;;19.70;15.63;;;10.40;93.70;;;;;;5056917;28;20313;-68
2022/05/10 04:30:37;;;;;;;19.40;16.35;;;10.40;93.50;;;;;;5052395;28;20524;-69
2022/05/10 04:33:03;;;;;;;20.92;17.15;;;10.30;93.40;;;;;;5052857;28;20098;-69
2022/05/10 04:35:31;;;;;;;18.20;15.85;;;10.30;93.10;;;;;;5055306;28;20028;-68
2022/05/10 04:38:04;;;;;;;21.92;16.35;;;10.40;93.40;;;;;;5047019;28;20068;-69
2022/05/10 04:43:19;;;;;;;17.73;15.82;;;10.70;94.10;;;;;;5062051;28;20460;-68
2022/05/10 04:45:45;;;;;;;18.85;15.80;;;10.80;94.70;;;;;;5064560;28;20471;-69
2022/05/10 04:48:14;;;;;;;18.55;15.38;;;10.90;95.10;;;;;;5068914;28;20021;-69
2022/05/10 04:50:40;;;;;;;19.75;14.45;;;11.00;95.50;;;;;;5054431;28;20141;-68
2022/05/10 04:53:06;;;;;;;33.35;29.80;;;11.10;95.70;;;;;;5056484;28;20124;-68
2022/05/10 04:55:31;;;;;;;17.45;15.55;;;11.10;95.70;;;;;;5057350;28;20036;-68
2022/05/10 04:57:57;;;;;;;17.15;14.63;;;11.10;95.90;;;;;;5064961;28;20082;-68
2022/05/10 05:00:23;;;;;;;19.05;15.52;;;11.10;95.80;;;;;;5053892;28;20049;-69
2022/05/10 05:02:49;;;;;;;17.65;15.02;;;11.10;96.00;;;;;;5054129;28;20075;-69
2022/05/10 05:05:15;;;;;;;18.77;15.75;;;11.00;96.30;;;;;;5059068;28;20028;-70
2022/05/10 05:07:41;;;;;;;18.13;16.17;;;11.00;95.80;;;;;;5039311;28;20021;-69
2022/05/10 05:10:07;;;;;;;20.80;16.67;;;11.00;95.90;;;;;;5033246;28;20412;-70
2022/05/10 05:12:34;;;;;;;16.70;14.80;;;11.10;95.70;;;;;;5052683;28;20025;-69
2022/05/10 05:15:01;;;;;;;17.27;15.15;;;11.30;95.60;;;;;;5036583;28;20088;-69
2022/05/10 05:17:29;;;;;;;18.15;14.73;;;11.40;95.70;;;;;;5035781;28;20089;-69
2022/05/10 05:19:55;;;;;;;16.90;14.13;;;11.50;95.80;;;;;;5055398;28;20033;-69
2022/05/10 05:22:20;;;;;;;17.48;14.80;;;11.70;96.20;;;;;;5055952;28;20031;-69
2022/05/10 05:24:46;;;;;;;14.98;13.10;;;11.90;96.40;;;;;;5055795;28;20318;-69
2022/05/10 05:27:12;;;;;;;21.38;15.10;;;12.10;97.20;;;;;;5056592;28;20021;-69
2022/05/10 05:29:37;;;;;;;31.17;21.77;;;12.30;97.10;;;;;;5053659;28;20020;-69
2022/05/10 05:32:08;;;;;;;26.63;17.55;;;12.50;97.80;;;;;;5056283;28;20029;-69
2022/05/10 05:34:40;;;;;;;26.52;18.88;;;12.70;98.00;;;;;;5054423;28;20035;-69
2022/05/10 05:39:52;;;;;;;32.15;22.13;;;13.30;98.00;;;;;;5058263;28;20113;-69
2022/05/10 05:42:18;;;;;;;21.85;15.45;;;13.50;98.00;;;;;;5076291;28;20043;-69
2022/05/10 05:44:44;;;;;;;17.88;12.70;;;13.80;98.00;;;;;;5057125;28;20028;-69
2022/05/10 05:47:11;;;;;;;19.08;13.65;;;14.00;98.00;;;;;;5038403;28;20029;-69
2022/05/10 05:49:39;;;;;;;16.48;13.02;;;14.20;98.00;;;;;;5036504;28;20104;-69
2022/05/10 05:52:05;;;;;;;13.05;10.90;;;14.40;97.90;;;;;;5055399;28;20357;-69
2022/05/10 05:54:33;;;;;;;14.43;11.40;;;14.60;97.40;;;;;;5055364;28;20040;-69
2022/05/10 05:57:00;;;;;;;13.32;11.18;;;14.90;97.30;;;;;;5055199;28;20037;-69
2022/05/10 05:59:26;;;;;;;13.02;10.00;;;15.00;96.90;;;;;;5054881;28;20239;-69
2022/05/10 06:01:53;;;;;;;16.48;11.90;;;15.20;96.70;;;;;;5054879;28;20041;-69
2022/05/10 06:04:18;;;;;;;13.20;11.02;;;15.40;97.10;;;;;;5053763;28;20100;-69
2022/05/10 06:06:44;;;;;;;16.05;11.57;;;15.60;95.30;;;;;;5055995;28;20111;-69
2022/05/10 06:09:10;;;;;;;13.07;10.85;;;15.60;94.90;;;;;;5053971;28;20029;-69
2022/05/10 06:11:35;;;;;;;14.73;11.00;;;15.70;94.70;;;;;;5054414;28;20032;-69
2022/05/10 06:14:01;;;;;;;13.05;11.00;;;15.80;94.80;;;;;;5059487;28;20029;-69
2022/05/10 06:16:28;;;;;;;12.88;10.38;;;15.80;94.30;;;;;;5055337;28;20047;-69
2022/05/10 06:18:54;;;;;;;13.70;9.63;;;15.90;93.90;;;;;;5054487;28;20025;-69
2022/05/10 06:21:21;;;;;;;13.38;10.32;;;15.90;93.30;;;;;;5055634;28;20405;-69
2022/05/10 06:23:46;;;;;;;12.27;10.38;;;16.00;93.70;;;;;;5055605;28;20087;-69
2022/05/10 06:26:12;;;;;;;11.77;9.93;;;16.00;93.50;;;;;;5055396;28;20112;-69
2022/05/10 06:28:41;;;;;;;14.57;12.45;;;16.10;93.30;;;;;;5055694;28;20356;-69
2022/05/10 06:31:08;;;;;;;16.08;14.38;;;16.20;93.50;;;;;;5055715;28;20421;-69
2022/05/10 06:33:34;;;;;;;17.67;13.98;;;15.90;93.10;;;;;;5054250;28;20041;-69
2022/05/10 06:36:00;;;;;;;17.73;13.82;;;15.60;93.50;;;;;;5055196;28;20433;-69
2022/05/10 06:38:28;;;;;;;15.65;13.10;;;15.40;93.60;;;;;;5054404;28;20041;-69
2022/05/10 06:40:56;;;;;;;16.13;13.70;;;15.50;93.80;;;;;;5053222;28;20055;-69
2022/05/10 06:43:22;;;;;;;16.15;12.98;;;15.60;93.70;;;;;;5050398;28;20025;-69
2022/05/10 06:45:49;;;;;;;17.85;13.45;;;15.60;93.50;;;;;;5053342;28;20371;-69
2022/05/10 06:48:18;;;;;;;14.35;12.48;;;15.70;93.60;;;;;;5034342;28;20029;-69
2022/05/10 06:50:53;;;;;;;14.80;12.20;;;15.90;92.40;;;;;;5052933;28;20372;-69
2022/05/10 06:53:18;;;;;;;13.52;11.77;;;16.10;92.80;;;;;;5053129;28;20021;-70
2022/05/10 06:55:44;;;;;;;14.50;12.77;;;16.30;91.80;;;;;;5053778;28;20086;-69
2022/05/10 06:58:10;;;;;;;13.35;11.85;;;16.20;92.10;;;;;;5052822;28;20036;-70
2022/05/10 07:00:38;;;;;;;11.57;10.15;;;16.30;92.30;;;;;;5052405;28;20041;-70
2022/05/10 07:03:11;;;;;;;15.88;12.68;;;16.70;92.10;;;;;;5036326;28;20028;-69
2022/05/10 07:05:37;;;;;;;14.90;11.68;;;17.10;90.60;;;;;;5057356;28;20009;-69
2022/05/10 07:08:03;;;;;;;13.00;10.93;;;17.30;89.90;;;;;;5056065;28;20027;-70
2022/05/10 07:10:31;;;;;;;13.40;10.45;;;17.30;89.60;;;;;;5058507;28;20083;-70
2022/05/10 07:12:58;;;;;;;12.73;10.80;;;17.40;89.00;;;;;;5057412;28;20037;-70
2022/05/10 07:15:24;;;;;;;15.85;11.23;;;17.60;88.20;;;;;;5056175;28;20052;-68
2022/05/10 07:17:50;;;;;;;15.23;10.88;;;17.50;88.70;;;;;;5057240;28;20033;-68
2022/05/10 07:20:19;;;;;;;14.77;10.02;;;17.60;88.20;;;;;;5057437;28;20021;-68
2022/05/10 07:22:45;;;;;;;13.43;11.70;;;17.70;87.90;;;;;;5057856;28;20061;-68
2022/05/10 07:25:14;;;;;;;13.63;10.52;;;17.90;87.60;;;;;;5057901;28;20017;-69
2022/05/10 07:27:41;;;;;;;13.38;10.68;;;18.00;87.40;;;;;;5058503;28;20098;-69
2022/05/10 07:30:08;;;;;;;16.95;10.82;;;18.20;87.30;;;;;;5056646;28;20036;-69
2022/05/10 07:32:37;;;;;;;16.17;11.27;;;18.40;86.30;;;;;;5038363;28;20426;-69
2022/05/10 07:35:06;;;;;;;14.40;9.63;;;18.60;86.40;;;;;;5058718;28;20029;-69
2022/05/10 07:37:33;;;;;;;10.48;9.00;;;19.40;84.20;;;;;;5039759;28;20029;-69
2022/05/10 07:40:00;;;;;;;14.57;9.13;;;20.30;82.10;;;;;;5058128;28;20029;-69
2022/05/10 07:42:25;;;;;;;11.02;8.23;;;21.10;78.70;;;;;;5057265;28;20029;-68
2022/05/10 07:44:51;;;;;;;13.63;6.57;;;21.60;77.30;;;;;;5058241;28;20492;-68
2022/05/10 07:47:17;;;;;;;13.07;7.70;;;22.70;75.10;;;;;;5056487;28;20075;-68
2022/05/10 07:49:43;;;;;;;9.55;7.40;;;23.50;72.20;;;;;;5057628;28;20060;-68
2022/05/10 07:52:09;;;;;;;9.00;7.00;;;23.90;71.60;;;;;;5057325;28;20060;-68
2022/05/10 07:54:38;;;;;;;9.48;7.00;;;24.20;71.50;;;;;;5057388;28;20025;-70
2022/05/10 07:57:04;;;;;;;9.73;6.70;;;24.40;70.70;;;;;;5057472;28;20156;-70
2022/05/10 07:59:31;;;;;;;12.85;5.93;;;24.60;71.00;;;;;;5057740;28;20052;-70
2022/05/10 08:01:57;;;;;;;11.48;7.00;;;25.00;70.60;;;;;;5057045;28;20402;-70
2022/05/10 08:04:26;;;;;;;9.05;5.88;;;25.10;69.20;;;;;;5055860;28;20386;-70
2022/05/10 08:06:52;;;;;;;12.88;6.55;;;25.10;70.00;;;;;;5057393;28;20029;-70
2022/05/10 08:09:19;;;;;;;7.20;5.13;;;25.00;69.90;;;;;;5057509;28;20025;-70
2022/05/10 08:11:46;;;;;;;7.15;5.18;;;24.90;69.90;;;;;;5056985;28;20071;-69
2022/05/10 08:14:15;;;;;;;9.85;5.53;;;25.20;68.90;;;;;;5055815;28;20368;-79
2022/05/10 08:16:40;;;;;;;9.95;5.90;;;25.90;67.00;;;;;;5056781;28;20037;-69
2022/05/10 08:19:06;;;;;;;9.00;5.75;;;26.20;67.20;;;;;;5056270;28;20025;-69
2022/05/10 08:21:32;;;;;;;6.28;4.95;;;26.20;66.00;;;;;;5039369;28;20025;-69
2022/05/10 08:24:00;;;;;;;7.32;4.97;;;26.00;67.50;;;;;;5056642;28;20029;-69
2022/05/10 08:26:28;;;;;;;7.35;5.18;;;26.60;65.70;;;;;;5056636;28;20422;-69
2022/05/10 08:28:54;;;;;;;10.15;6.05;;;26.90;64.80;;;;;;5057139;28;20040;-69
2022/05/10 08:31:22;;;;;;;9.57;5.82;;;27.30;63.40;;;;;;5056701;28;20029;-69
2022/05/10 08:33:51;;;;;;;7.15;5.32;;;27.60;63.10;;;;;;5053016;28;20114;-69
2022/05/10 08:36:19;;;;;;;7.13;4.80;;;27.10;63.90;;;;;;5037474;28;20128;-70
2022/05/10 08:38:45;;;;;;;8.32;5.38;;;27.20;64.20;;;;;;5037884;28;20030;-69
2022/05/10 08:41:18;;;;;;;6.43;5.03;;;27.00;63.70;;;;;;5057205;28;20489;-70
2022/05/10 08:44:05;;;;;;;10.20;5.38;;;27.20;62.80;;;;;;5055784;28;20025;-69
2022/05/10 08:46:37;;;;;;;7.70;5.35;;;27.60;62.80;;;;;;5037416;28;20018;-69
2022/05/10 08:49:42;;;;;;;10.07;5.45;;;27.40;62.70;;;;;;5037251;28;20022;-69
2022/05/10 08:52:12;;;;;;;7.30;5.03;;;27.70;61.50;;;;;;4951513;29;20131;-69
2022/05/10 08:54:40;;;;;;;9.45;4.80;;;27.80;61.70;;;;;;5035870;28;20035;-69
2022/05/10 08:57:11;;;;;;;11.65;5.18;;;27.10;61.20;;;;;;5077157;28;20465;-69
2022/05/10 08:59:56;;;;;;;7.47;4.85;;;27.00;62.50;;;;;;5068689;28;20044;-69
2022/05/10 09:02:51;;;;;;;9.85;5.18;;;26.40;62.60;;;;;;5055396;28;20033;-69
2022/05/10 09:05:16;;;;;;;10.20;5.20;;;26.40;62.30;;;;;;5066831;28;20033;-69
2022/05/10 09:07:45;;;;;;;7.75;4.70;;;26.20;63.60;;;;;;5076978;28;20021;-69
2022/05/10 09:10:30;;;;;;;8.02;4.93;;;26.30;63.90;;;;;;5064474;28;20049;-69
2022/05/10 09:13:02;;;;;;;8.10;4.90;;;26.80;64.10;;;;;;5056741;28;20368;-69
2022/05/10 09:15:34;;;;;;;10.18;5.25;;;27.70;60.10;;;;;;5055771;28;20032;-69
2022/05/10 09:18:07;;;;;;;10.18;4.78;;;27.50;60.10;;;;;;5055255;28;20032;-69
2022/05/10 09:20:35;;;;;;;9.27;5.50;;;27.00;61.20;;;;;;5055426;28;20040;-69
2022/05/10 09:23:33;;;;;;;6.82;4.93;;;27.10;60.60;;;;;;5056274;28;20391;-69
2022/05/10 09:25:59;;;;;;;6.68;4.88;;;27.30;60.40;;;;;;5052304;28;20037;-69
2022/05/10 09:28:44;;;;;;;6.05;4.30;;;27.40;60.80;;;;;;5056321;28;20027;-69
2022/05/10 09:37:30;;;;;;;6.95;4.93;;;29.50;55.90;;;;;;5050313;28;20039;-69
2022/05/10 09:40:17;;;;;;;8.02;4.45;;;29.30;56.40;;;;;;5055341;28;20433;-69
2022/05/10 09:42:49;;;;;;;12.95;5.05;;;29.30;56.40;;;;;;5056271;28;20025;-69
2022/05/10 09:45:26;;;;;;;7.30;4.68;;;29.00;57.70;;;;;;5054544;28;20116;-69
2022/05/10 09:48:14;;;;;;;7.15;4.93;;;28.30;58.70;;;;;;5055035;28;20021;-69
2022/05/10 09:50:51;;;;;;;6.85;4.03;;;28.10;59.60;;;;;;5055072;28;20029;-69
2022/05/10 09:53:36;;;;;;;6.40;4.43;;;28.10;57.60;;;;;;5055813;28;20028;-69
2022/05/10 09:56:10;;;;;;;7.55;5.05;;;28.20;58.00;;;;;;5053019;28;20350;-69
2022/05/10 09:58:36;;;;;;;8.65;4.50;;;27.10;59.70;;;;;;5054970;28;20052;-69
2022/05/10 10:01:11;;;;;;;7.03;4.03;;;27.30;60.50;;;;;;5055838;28;20041;-69
2022/05/10 10:03:39;;;;;;;8.55;4.80;;;28.40;56.90;;;;;;5052383;28;20048;-69
2022/05/10 10:06:24;;;;;;;5.72;3.80;;;29.10;58.30;;;;;;5053831;28;20465;-69
2022/05/10 10:08:55;;;;;;;5.32;3.33;;;29.20;55.60;;;;;;5053022;28;20024;-69
2022/05/10 10:11:32;;;;;;;6.63;3.47;;;29.30;53.60;;;;;;5051760;28;20032;-69
2022/05/10 10:13:59;;;;;;;6.80;3.50;;;29.30;54.30;;;;;;5053017;28;20099;-69
2022/05/10 10:16:31;;;;;;;5.25;3.40;;;29.10;54.70;;;;;;5052442;28;20028;-69
2022/05/10 10:19:04;;;;;;;5.13;2.95;;;29.00;52.50;;;;;;5051229;28;20029;-69
2022/05/10 10:21:56;;;;;;;6.07;2.90;;;29.90;51.50;;;;;;5053150;28;20025;-68
2022/05/10 10:24:30;;;;;;;7.32;3.05;;;30.30;52.30;;;;;;5041929;28;20531;-69
2022/05/10 10:27:02;;;;;;;5.80;3.80;;;30.30;50.90;;;;;;5052695;28;20057;-69
2022/05/10 10:29:55;;;;;;;5.28;3.38;;;29.30;52.10;;;;;;5055616;28;20028;-69
2022/05/10 10:32:33;;;;;;;5.35;3.30;;;28.80;54.30;;;;;;5053797;28;20033;-69
2022/05/10 10:35:12;;;;;;;6.40;3.13;;;28.40;52.50;;;;;;5051990;28;20031;-69
2022/05/10 10:38:11;;;;;;;4.70;2.97;;;28.60;52.70;;;;;;5057412;28;20417;-69
2022/05/10 10:40:41;;;;;;;7.70;3.35;;;29.40;52.40;;;;;;5058785;28;20033;-68
2022/05/10 10:43:13;;;;;;;5.72;3.10;;;29.30;51.80;;;;;;5059623;28;20356;-68
2022/05/10 10:46:14;;;;;;;7.93;3.17;;;29.00;52.70;;;;;;5059073;28;20029;-68
2022/05/10 10:48:53;;;;;;;4.90;3.00;;;29.20;50.50;;;;;;5033556;28;20045;-70
2022/05/10 10:51:23;;;;;;;5.45;3.35;;;29.00;48.60;;;;;;5059507;28;20028;-69
2022/05/10 10:53:49;;;;;;;5.85;3.47;;;29.70;51.10;;;;;;5058618;28;20876;-69
2022/05/10 10:56:26;;;;;;;5.15;3.03;;;30.10;48.10;;;;;;5058511;28;20029;-69
2022/05/10 10:59:13;;;;;;;5.40;2.72;;;29.70;48.10;;;;;;5058308;28;20108;-69
2022/05/10 11:02:00;;;;;;;4.20;2.50;;;28.90;48.70;;;;;;5056895;28;20043;-69
2022/05/10 11:04:52;;;;;;;4.70;2.90;;;27.90;48.90;;;;;;5055941;28;20406;-68
2022/05/10 11:07:30;;;;;;;5.03;2.75;;;27.20;50.80;;;;;;5054789;28;20032;-69
2022/05/10 11:10:23;;;;;;;5.82;2.70;;;27.40;50.80;;;;;;5055300;28;20025;-68
2022/05/10 11:13:07;;;;;;;12.32;5.30;;;27.70;49.30;;;;;;5060383;28;20025;-68
2022/05/10 11:15:47;;;;;;;4.75;2.47;;;27.90;49.70;;;;;;5057211;28;20075;-69
2022/05/10 11:18:33;;;;;;;5.22;2.50;;;28.70;49.00;;;;;;5056222;28;20064;-69
2022/05/10 11:21:49;;;;;;;12.40;5.47;;;29.30;47.00;;;;;;5056891;28;20060;-69
2022/05/10 11:24:33;;;;;;;10.38;4.72;;;30.10;46.40;;;;;;4939609;29;20047;-69
2022/05/10 11:27:23;;;;;;;4.63;2.20;;;29.60;44.90;;;;;;4957983;29;20420;-68
2022/05/10 11:30:06;;;;;;;4.32;2.83;;;28.70;46.90;;;;;;5034452;28;20040;-68
2022/05/10 11:32:56;;;;;;;4.65;2.42;;;28.00;47.60;;;;;;5055370;28;20017;-69
2022/05/10 11:35:40;;;;;;;3.90;2.20;;;27.60;48.40;;;;;;5052831;28;20472;-69
2022/05/10 11:38:26;;;;;;;6.20;2.78;;;27.80;47.90;;;;;;5054446;28;20099;-68
2022/05/10 11:41:03;;;;;;;13.55;5.68;;;27.80;48.70;;;;;;5055819;28;20039;-69
2022/05/10 11:43:55;;;;;;;3.90;2.38;;;27.00;48.50;;;;;;5058037;28;20101;-69
2022/05/10 11:46:36;;;;;;;6.20;2.30;;;26.40;50.80;;;;;;5056230;28;20104;-69
2022/05/10 11:49:16;;;;;;;5.40;2.50;;;26.30;48.40;;;;;;5054254;28;20021;-69
2022/05/10 11:52:05;;;;;;;4.60;2.53;;;26.30;50.60;;;;;;5041627;28;20025;-68
2022/05/10 11:55:05;;;;;;;4.65;2.50;;;26.80;51.80;;;;;;5054594;28;20075;-68
2022/05/10 11:57:33;;;;;;;8.02;3.15;;;27.70;49.70;;;;;;5051345;28;20029;-68
2022/05/10 12:00:34;;;;;;;6.82;2.88;;;28.60;48.00;;;;;;5038670;28;20083;-68
2022/05/10 12:03:02;;;;;;;3.65;1.90;;;28.80;48.00;;;;;;5009939;28;20037;-68
2022/05/10 12:05:46;;;;;;;4.40;2.33;;;28.90;45.10;;;;;;5049896;28;20087;-68
2022/05/10 12:08:33;;;;;;;7.15;2.78;;;29.20;46.20;;;;;;5055478;28;20021;-68
2022/05/10 12:11:27;;;;;;;3.70;2.03;;;29.20;45.60;;;;;;5056067;28;20033;-68
2022/05/10 12:23:00;;;;;;;4.15;2.00;;;29.30;46.20;;;;;;5045466;28;20039;-69
2022/05/10 12:25:52;;;;;;;3.53;2.00;;;30.00;44.70;;;;;;5057749;28;20025;-69
2022/05/10 12:28:43;;;;;;;5.35;2.05;;;31.10;41.90;;;;;;5056464;28;20489;-69
2022/05/10 12:31:31;;;;;;;3.88;2.10;;;30.20;43.10;;;;;;5057654;28;20025;-69
2022/05/10 12:34:00;;;;;;;3.67;1.98;;;29.90;47.00;;;;;;5056125;28;20033;-69
2022/05/10 12:36:38;;;;;;;3.45;1.85;;;30.00;46.20;;;;;;5057107;28;20083;-69
2022/05/10 12:39:16;;;;;;;5.78;2.70;;;29.90;46.30;;;;;;5057526;28;20024;-69
2022/05/10 12:42:01;;;;;;;3.42;2.03;;;29.70;46.50;;;;;;5056069;28;20021;-69
2022/05/10 12:44:50;;;;;;;5.28;3.00;;;29.50;44.40;;;;;;5057135;28;20352;-69
2022/05/10 12:47:16;;;;;;;4.90;2.60;;;29.00;45.80;;;;;;5056566;28;20151;-69
2022/05/10 12:49:47;;;;;;;5.47;2.63;;;29.20;46.20;;;;;;5056177;28;20104;-68
2022/05/10 12:52:39;;;;;;;4.82;2.58;;;29.80;48.40;;;;;;5057445;28;20028;-69
2022/05/10 12:55:09;;;;;;;5.80;2.72;;;30.40;47.50;;;;;;5057094;28;20029;-69
2022/05/10 12:58:06;;;;;;;3.60;1.90;;;30.60;44.50;;;;;;5056531;28;20017;-69
2022/05/10 13:00:40;;;;;;;4.40;2.58;;;29.70;45.60;;;;;;5056509;28;20335;-69
2022/05/10 13:03:21;;;;;;;4.47;2.90;;;29.00;45.70;;;;;;5054266;28;20025;-69
2022/05/10 13:06:28;;;;;;;3.97;2.30;;;28.50;47.50;;;;;;5056603;28;20025;-69
2022/05/10 13:09:19;;;;;;;5.28;2.58;;;28.60;47.70;;;;;;5051413;28;20041;-69
2022/05/10 13:11:57;;;;;;;8.52;2.70;;;29.00;46.60;;;;;;5054455;28;20037;-69
2022/05/10 13:14:24;;;;;;;5.65;2.47;;;29.10;47.10;;;;;;5053474;28;20049;-69
2022/05/10 13:16:54;;;;;;;5.30;2.42;;;29.40;45.90;;;;;;5054592;28;20127;-69
2022/05/10 13:19:22;;;;;;;4.85;2.47;;;29.30;46.20;;;;;;5053586;28;20020;-69
2022/05/10 13:21:52;;;;;;;3.85;2.22;;;29.20;45.10;;;;;;5055589;28;20444;-69
2022/05/10 13:24:19;;;;;;;6.35;2.50;;;29.40;44.70;;;;;;5050279;28;20041;-69
2022/05/10 13:27:02;;;;;;;4.78;2.53;;;29.50;45.80;;;;;;5052749;28;20023;-69
2022/05/10 13:29:42;;;;;;;4.88;2.85;;;29.20;46.70;;;;;;5041735;28;20486;-69
2022/05/10 13:32:27;;;;;;;5.53;2.42;;;28.60;47.70;;;;;;5031853;28;20040;-68
2022/05/10 13:34:53;;;;;;;5.18;2.50;;;28.20;48.00;;;;;;5035943;28;20033;-68